Latest Coastal Weather Observations for Moruya Airport

IDN60701

Issued at 6:31 am EDT Wednesday 22 November 2017 (issued every 10 minutes, with the page automatically refreshed every 10 minutes)

About coastal observations | Map of coastal stations | Coastal observations for NSW | Marine services | Other Formats
Station Details ID: 069148 Name: MORUYA AIRPORT AWS Lat: -35.90 Lon: 150.14 Height: 4.0 m
Data from the previous 72 hours. | See also: Recent months at Moruya Airport
Date/Time
EDT
Temp
°C
Wind Pressure Rain since
9am
mm
Weather Cloud Vis
km
Sea
Height
m
Swell
Dir  Spd
kts
Gust
kts
hPa Trend Height
m
Period
s
Dir
22/06:30am 12.7 CALM 0 0 1021.2 - 0.0 - Clear 8 - - - -
22/06:00am 11.0 W 3 4 1021.1 - 0.0 - - 9 - - - -
22/05:30am 11.9 W 3 4 1021.1 - 0.0 - - 9 - - - -
22/05:00am 11.9 W 3 4 1021.0 - 0.0 - - 10 - - - -
22/04:30am 11.8 CALM 0 0 1021.0 - 0.0 - Partly cloudy 10 - - - -
22/04:00am 12.4 CALM 0 0 1021.0 - 0.0 - Partly cloudy 10 - - - -
22/03:30am 13.1 CALM 0 0 1021.1 - 0.0 - Partly cloudy 10 - - - -
22/03:00am 13.3 CALM 0 0 1021.3 - 0.0 - Partly cloudy 10 - - - -
22/02:30am 13.3 CALM 0 0 1021.4 - 0.0 - Partly cloudy 10 - - - -
22/02:00am 13.0 CALM 0 0 1021.6 - 0.0 - Partly cloudy 10 - - - -
22/01:30am 13.3 CALM 0 0 1021.9 - 0.0 - Partly cloudy 10 - - - -
22/01:00am 13.3 CALM 0 0 1022.0 - 0.0 - Partly cloudy 10 - - - -
22/12:30am 13.4 CALM 0 0 1022.3 - 0.0 - Partly cloudy 10 - - - -
22/12:00am 13.0 CALM 0 0 1022.4 - 0.0 - Partly cloudy 10 - - - -
 
Date/Time
EDT
Temp
°C
Wind Pressure Rain since
9am
mm
Weather Cloud Vis
km
Sea
Height
m
Swell
Dir  Spd
kts
Gust
kts
hPa Trend Height
m
Period
s
Dir
21/11:30pm 12.6 CALM 0 0 1022.6 - 0.0 - - 10 - - - -
21/11:00pm 12.7 NW 1 3 1022.8 - 0.0 - - 10 - - - -
21/10:30pm 13.1 NNW 3 3 1022.9 - 0.0 - - 10 - - - -
21/10:00pm 13.9 N 3 3 1023.1 - 0.0 - - 10 - - - -
21/09:30pm 14.9 N 3 4 1023.2 - 0.0 - - 10 - - - -
21/09:00pm 16.5 N 4 5 1023.0 - 0.0 - - 10 - - - -
21/08:30pm 16.6 NNE 4 6 1022.9 - 0.0 - - 10 - - - -
21/08:00pm 17.1 NNE 5 6 1022.7 - 0.0 - - 9 - - - -
21/07:30pm 18.8 NNE 7 9 1022.5 - 0.0 - - 10 - - - -
21/07:00pm 19.1 NNE 9 11 1022.5 - 0.0 - - 10 - - - -
21/06:30pm 19.9 NE 9 12 1022.5 - 0.0 - - 10 - - - -
21/06:00pm 20.3 NE 10 13 1022.3 - 0.0 - - 10 - - - -
21/05:30pm 20.6 NE 9 11 1022.3 - 0.0 - - 10 - - - -
21/05:00pm 20.8 NE 10 13 1022.4 - 0.0 - - 10 - - - -
21/04:30pm 20.8 NE 11 13 1022.4 - 0.0 - - 10 - - - -
21/04:00pm 21.4 ENE 11 13 1022.4 - 0.0 - - 10 - - - -
21/03:30pm 21.6 ENE 11 13 1022.7 - 0.0 - - 10 - - - -
21/03:00pm 21.1 ENE 11 13 1022.9 - 0.0 - - 10 - - - -
21/02:30pm 21.4 ENE 11 12 1023.4 - 0.0 - - 10 - - - -
21/02:00pm 21.7 ENE 11 13 1023.7 - 0.0 - - 10 - - - -
21/01:30pm 21.4 ENE 11 13 1024.1 - 0.0 - - 10 - - - -
21/01:00pm 21.9 ENE 11 12 1024.4 - 0.0 - - 10 - - - -
21/12:30pm 21.0 ENE 10 12 1024.8 - 0.0 - - 10 - - - -
21/12:00pm 21.0 ENE 9 11 1025.2 - 0.0 - - 10 - - - -
21/11:30am 21.2 ENE 10 11 1025.3 - 0.0 - - 10 - - - -
21/11:00am 20.3 ENE 9 11 1025.4 - 0.0 - - 10 - - - -
21/10:30am 20.3 ENE 8 10 1025.4 - 0.0 - Partly cloudy 10 - - - -
21/10:00am 19.8 E 7 8 1025.2 - 0.0 - Partly cloudy 10 - - - -
21/09:30am 19.7 ENE 5 7 1025.3 - 0.0 - Partly cloudy 10 - - - -
21/09:00am 18.7 ENE 6 7 1025.5 - 0.0 - Mostly cloudy 10 - - - -
21/08:30am 17.6 NE 5 7 1025.5 - 0.0 - - 9 - - - -
21/08:00am 17.9 NNE 5 9 1025.2 - 0.0 - - 10 - - - -
21/07:30am 17.3 CALM 0 0 1025.0 - 0.0 - - 10 - - - -
21/07:00am 15.9 CALM 0 0 1025.0 - 0.0 - Partly cloudy 10 - - - -
21/06:30am 13.7 CALM 0 0 1024.9 - 0.0 - Partly cloudy 10 - - - -
21/06:00am 12.4 CALM 0 0 1024.8 - 0.0 - Mostly clear 10 - - - -
21/05:30am 12.2 CALM 0 0 1024.4 - 0.0 - - 10 - - - -
21/05:00am 13.3 CALM 0 0 1024.2 - 0.0 - Partly cloudy 10 - - - -
21/04:30am 14.3 CALM 0 0 1024.2 - 0.0 - Partly cloudy 10 - - - -
21/04:00am 14.6 CALM 0 3 1024.1 - 0.0 - Cloudy 10 - - - -
21/03:30am 14.7 SSW 4 6 1024.3 - 0.0 - Partly cloudy 10 - - - -
21/03:00am 14.4 CALM 0 0 1024.5 - 0.0 - Mostly cloudy 10 - - - -
21/02:30am 14.2 W 1 4 1024.6 - 0.0 - Partly cloudy 10 - - - -
21/02:00am 13.8 W 2 4 1024.7 - 0.0 - Cloudy 10 - - - -
21/01:30am 13.1 W 1 4 1025.0 - 0.0 - Partly cloudy 10 - - - -
21/01:00am 12.5 W 3 4 1025.3 - 0.0 - - 10 - - - -
21/12:30am 12.5 W 3 4 1025.4 - 0.0 - Partly cloudy 10 - - - -
21/12:00am 12.5 CALM 0 0 1025.7 - 0.0 - Partly cloudy 10 - - - -
 
Date/Time
EDT
Temp
°C
Wind Pressure Rain since
9am
mm
Weather Cloud Vis
km
Sea
Height
m
Swell
Dir  Spd
kts
Gust
kts
hPa Trend Height
m
Period
s
Dir
20/11:30pm 12.8 CALM 0 0 1025.7 - 0.0 - - 10 - - - -
20/11:00pm 13.4 CALM 0 0 1025.6 - 0.0 - - 10 - - - -
20/10:30pm 13.6 CALM 0 0 1025.8 - 0.0 - - 10 - - - -
20/10:00pm 14.0 CALM 0 0 1025.9 - 0.0 - - 10 - - - -
20/09:30pm 14.6 CALM 0 0 1025.8 - 0.0 - - 10 - - - -
20/09:00pm 15.2 NNW 2 3 1025.5 - 0.0 - - 10 - - - -
20/08:30pm 16.5 N 4 5 1025.4 - 0.0 - - 10 - - - -
20/08:00pm 17.5 N 4 5 1025.2 - 0.0 - - 7 - - - -
20/07:30pm 19.0 NE 5 7 1025.1 - 0.0 - - 10 - - - -
20/07:00pm 20.0 NE 8 9 1024.9 - 0.0 - - 10 - - - -
20/06:30pm 20.5 NE 8 10 1024.8 - 0.0 - - 10 - - - -
20/06:00pm 20.7 NE 7 11 1024.7 - 0.0 - - 10 - - - -
20/05:30pm 20.8 NE 8 10 1024.8 - 0.0 - - 10 - - - -
20/05:00pm 20.8 NE 9 11 1024.9 - 0.0 - - 10 - - - -
20/04:30pm 21.4 NE 9 11 1024.8 - 0.0 - - 10 - - - -
20/04:00pm 21.8 ENE 9 11 1024.9 - 0.0 - - 10 - - - -
20/03:30pm 21.7 ENE 9 11 1024.9 - 0.0 - - 10 - - - -
20/03:00pm 22.0 ENE 10 12 1025.0 - 0.0 - - 10 - - - -
20/02:30pm 21.3 ENE 11 13 1025.1 - 0.0 - - 10 - - - -
20/02:00pm 22.3 ENE 11 13 1025.4 - 0.0 - - 10 - - - -
20/01:30pm 22.0 ENE 9 11 1025.5 - 0.0 - - 10 - - - -
20/01:00pm 22.0 ENE 9 10 1025.7 - 0.0 - - 10 - - - -
20/12:30pm 22.1 ENE 9 11 1026.1 - 0.0 - - 10 - - - -
20/12:00pm 22.5 E 9 10 1026.4 - 0.0 - - 10 - - - -
20/11:30am 22.4 E 7 9 1026.5 - 0.0 - Partly cloudy 10 - - - -
20/11:00am 22.7 E 6 7 1026.7 - 0.0 - Partly cloudy 10 - - - -
20/10:30am 21.0 ENE 4 6 1026.9 - 0.0 - Partly cloudy 10 - - - -
20/10:00am 20.8 ENE 4 6 1026.9 - 0.0 - Partly cloudy 10 - - - -
20/09:30am 20.3 SSW 4 5 1026.7 - 0.0 - Cloudy 10 - - - -
20/09:00am 19.3 SW 4 6 1026.6 - 0.0 - Cloudy 10 - - - -
20/08:30am 17.9 SW 4 6 1026.4 - 0.0 - Cloudy 10 - - - -
20/08:00am 16.7 SW 6 8 1026.2 - 0.0 - Cloudy 10 - - - -
20/07:30am 15.9 W 4 6 1026.0 - 0.0 - Cloudy 10 - - - -
20/07:00am 15.1 WNW 3 5 1025.7 - 0.0 - Partly cloudy 10 - - - -
20/06:30am 14.1 WNW 5 6 1025.5 - 0.0 - Partly cloudy 10 - - - -
20/06:10am 13.6 WSW 5 9 1025.5 - 0.0 - - 10 - - - -
20/06:00am 12.8 WSW 5 6 1025.6 - 0.0 - - 5 - - - -
20/05:30am 12.6 CALM 0 0 1025.0 - 0.0 - - 2 - - - -
20/05:00am 13.2 CALM 0 0 1025.1 - 0.0 - - 2 - - - -
20/04:30am 12.9 CALM 0 0 1024.9 - 0.0 - - 0.5 - - - -
20/04:00am 13.3 CALM 0 0 1024.8 - 0.0 - - 3 - - - -
20/03:30am 13.8 CALM 0 0 1024.7 - 0.0 - - 4 - - - -
20/03:00am 13.9 CALM 0 0 1024.7 - 0.0 - - 3 - - - -
20/02:39am 14.1 CALM 0 0 1024.7 - 0.0 - Partly cloudy 5 - - - -
20/02:30am 14.3 CALM 0 0 1024.7 - 0.0 - Partly cloudy 10 - - - -
20/02:00am 15.1 CALM 0 0 1024.9 - 0.0 - Partly cloudy 10 - - - -
20/01:30am 15.4 CALM 0 0 1025.1 - 0.0 - Partly cloudy 10 - - - -
20/01:00am 14.8 CALM 0 0 1025.1 - 0.0 - Partly cloudy 10 - - - -
20/12:30am 15.5 CALM 0 0 1025.1 - 0.0 - - 10 - - - -
20/12:00am 15.9 SW 1 3 1025.3 - 0.0 - Mostly clear 10 - - - -
 
Date/Time
EDT
Temp
°C
Wind Pressure Rain since
9am
mm
Weather Cloud Vis
km
Sea
Height
m
Swell
Dir  Spd
kts
Gust
kts
hPa Trend Height
m
Period
s
Dir
19/11:30pm 16.4 CALM 0 0 1025.5 - 0.0 - Partly cloudy 10 - - - -
19/11:00pm 16.2 CALM 0 3 1025.6 - 0.0 - Partly cloudy 10 - - - -
19/10:30pm 16.0 CALM 0 0 1025.7 - 0.0 - Partly cloudy 10 - - - -
19/10:00pm 15.9 CALM 0 0 1025.7 - 0.0 - - 10 - - - -
19/09:30pm 16.2 CALM 0 0 1025.6 - 0.0 - Partly cloudy 10 - - - -
19/09:00pm 16.6 CALM 0 0 1025.5 - 0.0 - Mostly cloudy 10 - - - -
19/08:30pm 16.9 CALM 0 0 1025.2 - 0.0 - Partly cloudy 10 - - - -
19/08:00pm 17.7 CALM 0 0 1025.0 - 0.0 - - 10 - - - -
19/07:30pm 18.9 E 4 5 1024.7 - 0.0 - - 10 - - - -
19/07:00pm 19.4 E 5 6 1024.4 - 0.0 - - 10 - - - -
19/06:30pm 20.1 NE 5 6 1024.0 - 0.0 - - 10 - - - -
19/06:00pm 20.2 NE 5 6 1023.7 - 0.0 - - 10 - - - -
19/05:30pm 20.5 ENE 6 7 1023.7 - 0.0 - - 10 - - - -
19/05:00pm 20.8 ENE 7 8 1023.7 - 0.0 - - 10 - - - -
19/04:30pm 20.9 ENE 7 8 1023.7 - 0.0 - Partly cloudy 10 - - - -
19/04:00pm 21.2 ENE 8 10 1023.8 - 0.0 - Partly cloudy 10 - - - -
19/03:30pm 21.4 E 9 11 1024.0 - 0.0 - - 10 - - - -
19/03:00pm 21.4 E 8 10 1024.1 - 0.0 - - 10 - - - -
19/02:30pm 21.2 E 8 9 1024.2 - 0.0 - - 10 - - - -
19/02:00pm 21.1 E 7 9 1024.4 - 0.0 - Partly cloudy 10 - - - -
19/01:30pm 20.8 ENE 7 8 1024.4 - 0.0 - Partly cloudy 10 - - - -
19/01:00pm 20.9 ENE 7 8 1024.6 - 0.0 - Partly cloudy 10 - - - -
19/12:30pm 20.4 ENE 7 8 1024.5 - 0.0 - Partly cloudy 10 - - - -
19/12:00pm 19.9 E 8 10 1024.7 - 0.0 - Partly cloudy 10 - - - -
19/11:30am 20.3 E 7 8 1024.8 - 0.0 - Partly cloudy 10 - - - -
19/11:00am 19.6 ESE 8 9 1024.7 - 0.0 - Partly cloudy 10 - - - -
19/10:30am 20.1 ESE 7 9 1024.6 - 0.0 - Partly cloudy 10 - - - -
19/10:00am 20.5 E 8 10 1024.3 - 0.0 - Partly cloudy 10 - - - -
19/09:30am 19.5 E 6 7 1024.4 - 0.0 - - 10 - - - -
19/09:00am 18.8 ENE 5 6 1024.5 - 0.2 - - 10 - - - -
19/08:30am 18.8 S 2 5 1024.4 - 0.2 - - 10 - - - -
19/08:00am 16.8 SSW 6 7 1024.4 - 0.2 - - 10 - - - -
19/07:30am 15.6 WSW 2 6 1024.0 - 0.2 - - 10 - - - -
19/07:00am 14.1 WSW 3 5 1023.7 - 0.2 - - 10 - - - -
19/06:40am 12.9 WSW 2 5 1023.7 - 0.2 - - 9 - - - -

Other Formats:

Comma delimited format used in spreadsheet applications
http://www.bom.gov.au/fwo/IDN60701/IDN60701.95937.axf

JavaScript Object Notation format (JSON) in row-major order
http://www.bom.gov.au/fwo/IDN60701/IDN60701.95937.json